Portada
METAR-TAF:

METAR-TAF

Aeroports :

Bintulu, Malàisia

latitud: 03-12N, longitud: 113-02E, altitud: 2 m

Observació

L'informe es va fer fa 1 hora i 4 minuts, a les 18:00 UTC
Vent 4 kt del Sud-Est, variant entre Est i Sud
Temperatura 26°C
Humitat 89%
Pressió 1011 hPa
Visibilitat 10 km o més
Escasses núvols a una alçada de 1600 ft

METAR: WBGB 121800Z 14004KT 100V190 9999 FEW016 26/24 Q1011

Hora: 03:04 (19:04 UTC)

Pronòstic

L'informe es va fer fa 2 hores i 4 minuts, a les 17:00 UTC
Pronòstic vàlid del 12 a les 18 UTC al 13 a les 18 UTC
Vent 3 kt amb direcció variable
Visibilitat 10 km o més
Escasses núvols a una alçada de 1600 ft
Temporalment
l' 12 a les 19 UTC al 12 a les 23 UTC
Visibilitat: 5000 m
Escasses núvols a una alçada de 500 ft
Núvols disperses a una alçada de 1600 ft
pluja

TAF: WBGB 121700Z 1218/1318 VRB03KT 9999 FEW016 TEMPO 1219/1223 5000 RA FEW005 SCT016

Observacions i pronòstics meteorològics de més de 4000 aeroports (METAR i TAF).

Les estacions disponibles són els punts grocs i vermells al mapa.

Posi el ratolí al punt desitjat per veure el nom de l'estació.

Feu clic per veure les observacions i els pronòstics meteorològics.

Per canviar el mapa: feu clic els botons verds amb una creu de color negre per apropar; al botó verd amb un guió per allunyar la imatge; o en les fletxes verdes per a mapes adjacents.


METAR-TAF: